Klamath Falls International, OR

2:45 PM PDT on September 17, 2014 (GMT -0700)
Mount Shasta | Change Station
CLOSE
Current Station
Airport
Location: Mount Shasta,
Elevation: 3533 ft
Nearby Weather Stations
Active Advisory: Fire Weather Warning

Elev 3533 ft 41.32 °N, 122.32 °W | Updated 49 minutes ago

Partly Cloudy
Partly Cloudy
80 °F
Feels Like 80 °F
N
0
Wind Variable Wind from North

Today
High -- | Low -- °F
--% Chance of Precip.
Yesterday
High -- | Low -- °F
Precip. -- in
6:49 AM 7:12 PM
Waning Crescent, 33% visible
Pressure 29.78 in
Visibility 10.0 miles
Clouds Clear
Dew Point 38 °F
Humidity 22%
Rainfall 0.00 in
Snow Depth 1 in , 0 in , 0 in
UV 7 out of 12
Pollen 4.20 out of 12
Air Quality Not available.
Flu Activity Not available.
METAR KMHS 172056Z AUTO 00000KT 10SM CLR 27/03 A2983 RMK AO2 SLP085 T02670033 58012

More Conditions Fewer Conditions

Pressure 29.78 in
Visibility 10.0 miles
Clouds Clear
Dew Point 38 °F
Humidity 22%
Rainfall 0.00 in
Snow Depth 1 in , 0 in , 0 in
UV 7 out of 12
Pollen 4.20 out of 12
Air Quality Not available.
Flu Activity Not available.
METAR KMHS 172056Z AUTO 00000KT 10SM CLR 27/03 A2983 RMK AO2 SLP085 T02670033 58012

More Conditions Fewer Conditions

10-Day Weather Forecast

Almanac

Astronomy

Sep. 17, 2014 Rise Set
Actual Time 6:49 AM PDT 7:12 PM PDT
Civil Twilight 6:21 AM PDT 7:40 PM PDT
Nautical Twilight 5:48 AM PDT 8:13 PM PDT
Astronomical Twilight 5:14 AM PDT 8:47 PM PDT
Moon 12:49 AM PDT 3:30 PM PDT
Length of Visible Light 13h 19m
Length of Day
12h 23m
Tomorrow will be 2m 48s shorter.
Waning Crescent, 33% of the Moon is Illuminated
Today
Waning Crescent
Sep 24
New
Oct 1
First Quarter
Oct 8
Full
Oct 15
Last Quarter

Today's Extremes

State Highs State Lows

Community

WunderPhotos

Upload Photos

1,754,171 photos uploaded!

Nearby

Snow Depth

Station Depth Elevation
Clear Lake 1 in 3500 ft
Roaring River 0 in 4900 ft
Strawberry 0 in 5760 ft
Peavine Ridge 0 in 3500 ft
Fish Lake 0 in 4665 ft

Earthquake Activity

City Distance Mag. Time & Date
No recent earthquake activity has been reported nearby.
Minimum magnitude displayed is 2.5.

Coastal Water Temperatures

Place Temperature
No Stations Reporting

Nearby Weather Stations